createdAt,value
2022-09-28T00:02:24.296Z,94157.88
2022-09-28T00:04:51.003Z,94159.31
2022-09-28T00:07:17.547Z,94153.38
2022-09-28T00:09:44.123Z,94148.41
2022-09-28T00:12:11.778Z,94143.81
2022-09-28T00:14:40.520Z,94145.50
2022-09-28T00:17:08.235Z,94126.81
2022-09-28T00:19:34.826Z,94116.09
2022-09-28T00:22:01.407Z,94118.09
2022-09-28T00:24:28.686Z,94115.66
2022-09-28T00:26:58.081Z,94116.91
2022-09-28T00:29:31.645Z,94113.22
2022-09-28T00:32:13.270Z,94103.88
2022-09-28T00:34:43.214Z,94095.22
2022-09-28T00:37:10.312Z,94091.13
2022-09-28T00:39:38.483Z,94085.31
2022-09-28T00:42:12.731Z,94087.91
2022-09-28T00:44:46.758Z,94076.72
2022-09-28T00:47:19.821Z,94065.66
2022-09-28T00:49:55.732Z,94067.13
2022-09-28T00:52:39.180Z,94046.13
2022-09-28T00:55:09.745Z,94048.03
2022-09-28T00:57:40.170Z,94045.44
2022-09-28T01:00:08.083Z,94042.19
2022-09-28T01:02:34.947Z,94040.84
2022-09-28T01:05:05.499Z,94032.38
2022-09-28T01:07:33.315Z,94035.34
2022-09-28T01:10:00.624Z,94018.88
2022-09-28T01:12:27.582Z,94020.81
2022-09-28T01:14:54.153Z,94017.75
2022-09-28T01:17:56.085Z,94016.63
2022-09-28T01:20:47.381Z,94020.53
2022-09-28T01:23:32.349Z,94011.00
2022-09-28T01:26:38.350Z,94001.31
2022-09-28T01:29:16.342Z,93999.53
2022-09-28T01:31:49.940Z,93996.66
2022-09-28T01:34:27.345Z,93998.88
2022-09-28T01:36:56.568Z,93991.53
2022-09-28T01:39:36.124Z,93986.28
2022-09-28T01:42:13.510Z,93989.19
2022-09-28T01:44:44.424Z,93981.53
2022-09-28T01:47:14.427Z,93980.19
2022-09-28T01:49:47.039Z,93977.50
2022-09-28T01:52:24.590Z,93975.94
2022-09-28T01:55:10.778Z,93965.59
2022-09-28T01:58:03.361Z,93956.00
2022-09-28T02:00:30.428Z,93951.31
2022-09-28T02:03:09.543Z,93946.16
2022-09-28T02:05:47.771Z,93949.13
2022-09-28T02:08:25.432Z,93945.63
2022-09-28T02:10:57.872Z,93943.63
2022-09-28T02:13:29.799Z,93941.53
2022-09-28T02:16:24.116Z,93940.75
2022-09-28T02:18:51.418Z,93936.09
2022-09-28T02:21:25.555Z,93935.94
2022-09-28T02:24:07.351Z,93926.84
2022-09-28T02:26:41.560Z,93930.84
2022-09-28T02:29:08.292Z,93918.50
2022-09-28T02:31:35.547Z,93915.84
2022-09-28T02:34:02.255Z,93912.13
2022-09-28T02:36:29.729Z,93907.41
2022-09-28T02:38:58.424Z,93905.19
2022-09-28T02:41:39.163Z,93899.03
2022-09-28T02:44:25.746Z,93897.28
2022-09-28T02:47:04.209Z,93886.63
2022-09-28T02:49:48.128Z,93882.88
2022-09-28T02:52:46.011Z,93885.66
2022-09-28T02:55:15.523Z,93880.75
2022-09-28T02:58:06.781Z,93874.00
2022-09-28T03:00:41.323Z,93874.63
2022-09-28T03:03:24.077Z,93864.97
2022-09-28T03:05:56.856Z,93867.22
2022-09-28T03:08:37.390Z,93862.84
2022-09-28T03:11:13.884Z,93863.75
2022-09-28T03:13:41.848Z,93860.81
2022-09-28T03:16:15.984Z,93857.72
2022-09-28T03:18:45.291Z,93865.00
2022-09-28T03:21:12.777Z,93855.41
2022-09-28T03:23:40.329Z,93855.63
2022-09-28T03:26:13.553Z,93849.09
2022-09-28T03:28:40.404Z,93858.59
2022-09-28T03:31:10.359Z,93853.00
2022-09-28T03:33:37.138Z,93855.31
2022-09-28T03:36:03.764Z,93850.69
2022-09-28T03:38:30.891Z,93854.22
2022-09-28T03:40:59.749Z,93853.56
2022-09-28T03:43:30.924Z,93845.97
2022-09-28T03:46:01.996Z,93849.00
2022-09-28T03:48:34.041Z,93845.50
2022-09-28T03:51:04.208Z,93842.44
2022-09-28T03:53:30.843Z,93835.75
2022-09-28T03:56:04.473Z,93833.25
2022-09-28T03:58:32.087Z,93832.03
2022-09-28T04:01:04.659Z,93828.50
2022-09-28T04:03:31.637Z,93828.69
2022-09-28T04:05:58.842Z,93821.66
2022-09-28T04:08:25.565Z,93833.72
2022-09-28T04:10:52.226Z,93823.88
2022-09-28T04:13:18.840Z,93830.84
2022-09-28T04:15:53.951Z,93830.75
2022-09-28T04:18:21.351Z,93827.88
2022-09-28T04:21:10.861Z,93828.34
2022-09-28T04:23:42.405Z,93819.78
2022-09-28T04:26:16.657Z,93823.69
2022-09-28T04:29:06.530Z,93822.94
2022-09-28T04:31:46.993Z,93818.19
2022-09-28T04:34:17.422Z,93820.69
2022-09-28T04:36:45.000Z,93820.25
2022-09-28T04:39:12.842Z,93817.84
2022-09-28T04:41:40.623Z,93813.75
2022-09-28T04:44:07.548Z,93817.72
2022-09-28T04:46:34.695Z,93824.13
2022-09-28T04:49:20.096Z,93822.56
2022-09-28T04:51:52.806Z,93816.56
2022-09-28T04:54:19.371Z,93814.97
2022-09-28T04:56:45.901Z,93820.81
2022-09-28T04:59:13.455Z,93821.06
2022-09-28T05:01:42.090Z,93825.91
2022-09-28T05:04:28.185Z,93811.31
2022-09-28T05:07:06.549Z,93814.22
2022-09-28T05:09:37.697Z,93826.44
2022-09-28T05:12:05.115Z,93823.97
2022-09-28T05:14:31.752Z,93816.06
2022-09-28T05:16:58.551Z,93827.94
2022-09-28T05:19:25.208Z,93816.16
2022-09-28T05:21:53.283Z,93822.94
2022-09-28T05:24:19.895Z,93821.81
2022-09-28T05:26:51.212Z,93828.69
2022-09-28T05:29:18.924Z,93828.34
2022-09-28T05:32:04.203Z,93820.91
2022-09-28T05:34:42.874Z,93832.28
2022-09-28T05:37:15.611Z,93833.72
2022-09-28T05:39:42.210Z,93845.03
2022-09-28T05:42:08.799Z,93858.75
2022-09-28T05:44:35.466Z,93872.31
2022-09-28T05:47:02.201Z,93874.34
2022-09-28T05:49:31.578Z,93875.09
2022-09-28T05:51:59.666Z,93872.94
2022-09-28T05:54:26.236Z,93868.13
2022-09-28T05:56:52.907Z,93866.72
2022-09-28T05:59:19.488Z,93862.94
2022-09-28T06:01:46.098Z,93873.69
2022-09-28T06:04:12.798Z,93881.03
2022-09-28T06:06:41.847Z,93874.91
2022-09-28T06:09:08.760Z,93877.59
2022-09-28T06:11:44.137Z,93880.47
2022-09-28T06:14:31.117Z,93882.50
2022-09-28T06:16:57.777Z,93883.75
2022-09-28T06:19:25.370Z,93888.84
2022-09-28T06:22:15.140Z,93891.44
2022-09-28T06:24:47.701Z,93894.03
2022-09-28T06:27:14.269Z,93895.53
2022-09-28T06:29:41.726Z,93902.00
2022-09-28T06:32:08.670Z,93906.44
2022-09-28T06:34:37.583Z,93907.78
2022-09-28T06:37:04.718Z,93907.38
2022-09-28T06:39:31.829Z,93903.88
2022-09-28T06:42:03.331Z,93915.66
2022-09-28T06:44:49.861Z,93913.34
2022-09-28T06:47:35.195Z,93922.28
2022-09-28T06:50:16.589Z,93905.94
2022-09-28T06:52:57.156Z,93920.31
2022-09-28T06:55:32.852Z,93928.94
2022-09-28T06:58:07.653Z,93938.06
2022-09-28T07:00:36.447Z,93936.75
2022-09-28T07:03:08.119Z,93941.28
2022-09-28T07:05:57.840Z,93948.47
2022-09-28T07:08:41.564Z,93942.91
2022-09-28T07:11:39.451Z,93946.50
2022-09-28T07:14:47.023Z,93951.81
2022-09-28T07:17:15.247Z,93954.22
2022-09-28T07:19:43.055Z,93958.69
2022-09-28T07:22:18.590Z,93963.59
2022-09-28T07:24:46.874Z,93972.00
2022-09-28T07:27:37.241Z,93975.56
2022-09-28T07:30:33.260Z,93975.56
2022-09-28T07:33:09.434Z,93977.34
2022-09-28T07:35:54.031Z,93984.56
2022-09-28T07:38:23.303Z,93979.84
2022-09-28T07:41:08.714Z,93987.81
2022-09-28T07:43:36.151Z,93996.56
2022-09-28T07:46:03.625Z,94006.56
2022-09-28T07:48:37.806Z,94013.75
2022-09-28T07:51:13.749Z,94017.09
2022-09-28T07:54:06.589Z,94018.94
2022-09-28T07:56:51.935Z,94007.56
2022-09-28T07:59:54.179Z,94022.56
2022-09-28T08:02:39.267Z,94029.63
2022-09-28T08:05:07.084Z,94021.25
2022-09-28T08:07:34.524Z,94030.09
2022-09-28T08:10:07.413Z,94030.53
2022-09-28T08:12:47.140Z,94036.41
2022-09-28T08:15:30.074Z,94041.69
2022-09-28T08:18:09.528Z,94039.91
2022-09-28T08:20:55.954Z,94047.28
2022-09-28T08:23:23.568Z,94046.03
2022-09-28T08:25:53.934Z,94042.44
2022-09-28T08:28:22.598Z,94043.47
2022-09-28T08:30:51.788Z,94050.06
2022-09-28T08:33:38.757Z,94049.13
2022-09-28T08:36:34.412Z,94054.81
2022-09-28T08:39:01.169Z,94058.34
2022-09-28T08:41:56.883Z,94066.69
2022-09-28T08:44:57.947Z,94061.75
2022-09-28T08:48:15.020Z,94069.69
2022-09-28T08:51:14.657Z,94069.00
2022-09-28T08:54:08.058Z,94071.06
2022-09-28T08:56:54.314Z,94080.44
2022-09-28T08:59:31.412Z,94084.25
2022-09-28T09:02:33.350Z,94086.66
2022-09-28T09:05:19.878Z,94084.81
2022-09-28T09:08:26.464Z,94088.69
2022-09-28T09:11:10.482Z,94094.66
2022-09-28T09:14:06.019Z,94090.56
2022-09-28T09:16:37.236Z,94094.75
2022-09-28T09:19:46.293Z,94106.72
2022-09-28T09:22:45.177Z,94108.41
2022-09-28T09:25:28.308Z,94115.09
2022-09-28T09:28:15.654Z,94109.13
2022-09-28T09:31:02.155Z,94112.59
2022-09-28T09:33:55.386Z,94120.47
2022-09-28T09:37:06.331Z,94120.66
2022-09-28T09:40:43.893Z,94116.75
2022-09-28T09:44:07.233Z,94125.16
2022-09-28T09:47:08.551Z,94123.44
2022-09-28T09:50:40.163Z,94121.56
2022-09-28T09:53:38.662Z,94119.34
2022-09-28T09:56:20.939Z,94119.19
2022-09-28T09:59:33.659Z,94122.97
2022-09-28T10:02:29.659Z,94114.53
2022-09-28T10:05:25.534Z,94109.69
2022-09-28T10:07:58.460Z,94113.25
2022-09-28T10:10:31.291Z,94112.13
2022-09-28T10:13:09.014Z,94127.28
2022-09-28T10:15:36.647Z,94129.69
2022-09-28T10:18:18.051Z,94125.59
2022-09-28T10:21:03.273Z,94132.78
2022-09-28T10:23:55.044Z,94134.91
2022-09-28T10:26:32.403Z,94128.69
2022-09-28T10:29:05.109Z,94126.09
2022-09-28T10:31:39.885Z,94129.31
2022-09-28T10:34:30.992Z,94124.50
2022-09-28T10:37:10.339Z,94123.84
2022-09-28T10:39:55.902Z,94119.84
2022-09-28T10:42:30.879Z,94128.22
2022-09-28T10:45:19.813Z,94128.22
2022-09-28T10:47:46.930Z,94120.31
2022-09-28T10:50:23.796Z,94129.81
2022-09-28T10:53:20.522Z,94131.66
2022-09-28T10:56:04.524Z,94138.16
2022-09-28T10:58:42.642Z,94129.25
2022-09-28T11:01:18.982Z,94138.53
2022-09-28T11:03:51.503Z,94138.06
2022-09-28T11:06:25.890Z,94140.75
2022-09-28T11:08:54.560Z,94130.53
2022-09-28T11:11:22.056Z,94126.06
2022-09-28T11:14:03.881Z,94122.41
2022-09-28T11:16:36.507Z,94117.09
2022-09-28T11:19:24.306Z,94133.59
2022-09-28T11:21:51.425Z,94125.94
2022-09-28T11:24:24.449Z,94123.06
2022-09-28T11:26:56.800Z,94125.88
2022-09-28T11:29:41.805Z,94125.50
2022-09-28T11:32:21.880Z,94121.38
2022-09-28T11:35:18.328Z,94116.00
2022-09-28T11:38:22.344Z,94116.19
2022-09-28T11:41:23.228Z,94113.50
2022-09-28T11:44:02.505Z,94111.09
2022-09-28T11:46:44.223Z,94119.50
2022-09-28T11:49:36.077Z,94111.84
2022-09-28T11:52:41.754Z,94116.69
2022-09-28T11:55:21.352Z,94111.00
2022-09-28T11:58:00.271Z,94114.19
2022-09-28T12:00:27.981Z,94112.69
2022-09-28T12:03:08.056Z,94116.56
2022-09-28T12:05:44.171Z,94111.94
2022-09-28T12:08:27.553Z,94106.09
2022-09-28T12:11:24.166Z,94111.72
2022-09-28T12:14:21.585Z,94118.06
2022-09-28T12:17:16.570Z,94108.69
2022-09-28T12:19:56.691Z,94113.50
2022-09-28T12:22:31.483Z,94118.00
2022-09-28T12:24:59.244Z,94121.25
2022-09-28T12:27:43.843Z,94113.03
2022-09-28T12:30:27.499Z,94111.53
2022-09-28T12:33:05.111Z,94116.00
2022-09-28T12:35:57.746Z,94114.97
2022-09-28T12:38:45.967Z,94118.59
2022-09-28T12:41:23.565Z,94121.50
2022-09-28T12:44:08.852Z,94111.72
2022-09-28T12:47:05.558Z,94121.22
2022-09-28T12:50:38.247Z,94116.28
2022-09-28T12:53:25.879Z,94105.81
2022-09-28T12:56:24.541Z,94108.28
2022-09-28T12:59:20.865Z,94108.06
2022-09-28T13:01:57.522Z,94114.88
2022-09-28T13:05:04.415Z,94108.72
2022-09-28T13:07:45.072Z,94111.41
2022-09-28T13:10:17.769Z,94106.19
2022-09-28T13:13:18.210Z,94110.72
2022-09-28T13:15:44.955Z,94110.66
2022-09-28T13:18:40.849Z,94107.72
2022-09-28T13:21:18.567Z,94111.97
2022-09-28T13:23:47.616Z,94110.41
2022-09-28T13:26:31.691Z,94103.09
2022-09-28T13:29:12.676Z,94108.44
2022-09-28T13:31:49.514Z,94106.16
2022-09-28T13:34:22.441Z,94117.78
2022-09-28T13:37:09.942Z,94110.47
2022-09-28T13:39:37.515Z,94116.34
2022-09-28T13:42:07.927Z,94122.13
2022-09-28T13:45:02.700Z,94126.06
2022-09-28T13:47:42.096Z,94126.22
2022-09-28T13:50:46.378Z,94134.19
2022-09-28T13:53:39.446Z,94138.00
2022-09-28T13:56:24.923Z,94129.38
2022-09-28T13:58:57.949Z,94138.69
2022-09-28T14:01:39.767Z,94140.47
2022-09-28T14:04:22.363Z,94144.09
2022-09-28T14:07:08.550Z,94153.78
2022-09-28T14:10:02.896Z,94147.38
2022-09-28T14:12:35.423Z,94148.47
2022-09-28T14:15:06.987Z,94144.47
2022-09-28T14:17:50.373Z,94142.97
2022-09-28T14:20:19.431Z,94148.75
2022-09-28T14:23:10.387Z,94155.34
2022-09-28T14:25:44.848Z,94159.56
2022-09-28T14:28:22.129Z,94153.59
2022-09-28T14:30:58.130Z,94150.81
2022-09-28T14:33:28.856Z,94149.44
2022-09-28T14:36:07.679Z,94151.06
2022-09-28T14:39:08.387Z,94152.66
2022-09-28T14:41:39.235Z,94157.88
2022-09-28T14:44:08.279Z,94160.47
2022-09-28T14:46:38.941Z,94153.97
2022-09-28T14:49:25.396Z,94151.63
2022-09-28T14:51:55.434Z,94156.28
2022-09-28T14:54:48.014Z,94157.44
2022-09-28T14:57:25.755Z,94158.16
2022-09-28T14:59:53.973Z,94158.69
2022-09-28T15:02:27.881Z,94154.47
2022-09-28T15:05:00.008Z,94164.97
2022-09-28T15:07:43.378Z,94150.72
2022-09-28T15:10:27.484Z,94153.19
2022-09-28T15:12:56.077Z,94160.97
2022-09-28T15:15:31.735Z,94160.91
2022-09-28T15:18:27.463Z,94161.72
2022-09-28T15:20:55.659Z,94164.72
2022-09-28T15:23:27.016Z,94175.59
2022-09-28T15:25:55.046Z,94156.34
2022-09-28T15:28:23.901Z,94156.19
2022-09-28T15:30:51.589Z,94162.78
2022-09-28T15:33:53.201Z,94164.34
2022-09-28T15:36:29.672Z,94172.34
2022-09-28T15:39:06.660Z,94164.97
2022-09-28T15:41:34.004Z,94176.41
2022-09-28T15:44:10.652Z,94167.56
2022-09-28T15:46:47.844Z,94173.81
2022-09-28T15:49:25.769Z,94173.38
2022-09-28T15:51:55.986Z,94170.59
2022-09-28T15:54:27.883Z,94174.09
2022-09-28T15:56:59.986Z,94168.53
2022-09-28T15:59:39.594Z,94170.44
2022-09-28T16:02:19.756Z,94166.38
2022-09-28T16:04:52.993Z,94170.72
2022-09-28T16:07:23.632Z,94174.72
2022-09-28T16:10:25.521Z,94165.72
2022-09-28T16:12:58.736Z,94171.16
2022-09-28T16:15:31.023Z,94165.16
2022-09-28T16:18:18.095Z,94162.81
2022-09-28T16:20:48.194Z,94158.78
2022-09-28T16:23:30.039Z,94162.59
2022-09-28T16:25:59.267Z,94167.63
2022-09-28T16:28:37.706Z,94166.19
2022-09-28T16:31:07.445Z,94166.91
2022-09-28T16:33:51.443Z,94164.06
2022-09-28T16:36:18.273Z,94164.81
2022-09-28T16:38:45.514Z,94165.78
2022-09-28T16:41:18.555Z,94174.94
2022-09-28T16:43:46.086Z,94169.53
2022-09-28T16:46:15.952Z,94174.72
2022-09-28T16:48:48.531Z,94176.84
2022-09-28T16:51:19.530Z,94176.97
2022-09-28T16:54:05.234Z,94187.38
2022-09-28T16:56:33.680Z,94186.88
2022-09-28T16:59:01.177Z,94197.41
2022-09-28T17:01:29.466Z,94194.78
2022-09-28T17:03:56.047Z,94190.59
2022-09-28T17:06:26.975Z,94194.63
2022-09-28T17:08:56.684Z,94190.25
2022-09-28T17:11:24.873Z,94201.03
2022-09-28T17:13:53.567Z,94198.81
2022-09-28T17:16:32.567Z,94204.63
2022-09-28T17:19:28.766Z,94200.50
2022-09-28T17:21:55.409Z,94199.06
2022-09-28T17:24:22.093Z,94197.75
2022-09-28T17:26:50.839Z,94208.72
2022-09-28T17:29:18.580Z,94204.69
2022-09-28T17:31:46.738Z,94206.38
2022-09-28T17:34:16.059Z,94207.63
2022-09-28T17:36:43.541Z,94207.03
2022-09-28T17:39:15.496Z,94210.25
2022-09-28T17:41:42.298Z,94211.16
2022-09-28T17:44:08.971Z,94210.25
2022-09-28T17:46:45.835Z,94206.53
2022-09-28T17:49:12.978Z,94216.84
2022-09-28T17:51:39.626Z,94215.00
2022-09-28T17:54:08.255Z,94215.00
2022-09-28T17:56:35.850Z,94231.53
2022-09-28T17:59:06.978Z,94225.22
2022-09-28T18:01:34.806Z,94232.53
2022-09-28T18:04:06.595Z,94230.38
2022-09-28T18:06:37.004Z,94238.22
2022-09-28T18:09:04.178Z,94241.09
2022-09-28T18:11:32.472Z,94244.59
2022-09-28T18:13:59.093Z,94251.63
2022-09-28T18:16:27.921Z,94257.38
2022-09-28T18:18:54.759Z,94254.41
2022-09-28T18:21:21.431Z,94264.72
2022-09-28T18:23:48.018Z,94262.22
2022-09-28T18:26:15.958Z,94265.91
2022-09-28T18:28:43.031Z,94281.69
2022-09-28T18:31:11.916Z,94286.38
2022-09-28T18:33:39.250Z,94286.03
2022-09-28T18:36:07.098Z,94288.06
2022-09-28T18:38:37.925Z,94282.84
2022-09-28T18:41:15.667Z,94275.38
2022-09-28T18:43:47.946Z,94275.03
2022-09-28T18:46:14.656Z,94276.44
2022-09-28T18:48:41.623Z,94276.97
2022-09-28T18:51:09.001Z,94270.06
2022-09-28T18:53:36.324Z,94278.00
2022-09-28T18:56:08.072Z,94277.91
2022-09-28T18:58:36.493Z,94277.38
2022-09-28T19:01:29.546Z,94272.31
2022-09-28T19:04:05.762Z,94275.59
2022-09-28T19:06:34.224Z,94279.44
2022-09-28T19:09:01.409Z,94282.16
2022-09-28T19:11:28.637Z,94281.34
2022-09-28T19:13:56.272Z,94273.38
2022-09-28T19:16:28.908Z,94276.88
2022-09-28T19:18:57.027Z,94283.72
2022-09-28T19:21:23.724Z,94291.25
2022-09-28T19:23:50.744Z,94286.16
2022-09-28T19:26:20.864Z,94284.53
2022-09-28T19:28:48.688Z,94297.72
2022-09-28T19:31:16.145Z,94300.56
2022-09-28T19:33:43.749Z,94305.94
2022-09-28T19:36:17.697Z,94304.81
2022-09-28T19:38:45.295Z,94315.41
2022-09-28T19:41:44.295Z,94315.84
2022-09-28T19:44:27.434Z,94316.25
2022-09-28T19:47:04.086Z,94325.16
2022-09-28T19:49:36.829Z,94317.06
2022-09-28T19:52:15.650Z,94322.94
2022-09-28T19:55:08.210Z,94330.06
2022-09-28T19:57:34.994Z,94331.25
2022-09-28T20:00:03.587Z,94327.53
2022-09-28T20:02:34.630Z,94324.94
2022-09-28T20:05:01.392Z,94332.00
2022-09-28T20:07:28.148Z,94331.09
2022-09-28T20:09:54.739Z,94325.53
2022-09-28T20:12:22.248Z,94331.66
2022-09-28T20:14:48.825Z,94339.88
2022-09-28T20:17:15.479Z,94336.50
2022-09-28T20:19:42.250Z,94338.19
2022-09-28T20:22:08.862Z,94345.47
2022-09-28T20:24:35.688Z,94342.91
2022-09-28T20:27:02.787Z,94337.66
2022-09-28T20:29:31.731Z,94338.63
2022-09-28T20:31:58.946Z,94338.38
2022-09-28T20:34:25.556Z,94343.28
2022-09-28T20:36:52.361Z,94341.44
2022-09-28T20:39:19.075Z,94340.84
2022-09-28T20:41:47.127Z,94344.88
2022-09-28T20:44:13.715Z,94336.28
2022-09-28T20:46:40.389Z,94329.50
2022-09-28T20:49:07.706Z,94336.88
2022-09-28T20:51:34.597Z,94333.00
2022-09-28T20:54:01.511Z,94332.50
2022-09-28T20:56:31.521Z,94332.66
2022-09-28T20:58:58.131Z,94330.06
2022-09-28T21:01:27.178Z,94327.22
2022-09-28T21:03:56.400Z,94332.69
2022-09-28T21:06:25.660Z,94331.16
2022-09-28T21:08:52.418Z,94328.31
2022-09-28T21:11:22.436Z,94328.81
2022-09-28T21:13:53.871Z,94321.78
2022-09-28T21:16:20.730Z,94322.78
2022-09-28T21:18:47.928Z,94318.47
2022-09-28T21:21:16.991Z,94322.84
2022-09-28T21:23:46.915Z,94323.50
2022-09-28T21:26:26.530Z,94325.59
2022-09-28T21:29:07.652Z,94321.56
2022-09-28T21:31:39.878Z,94320.22
2022-09-28T21:34:07.448Z,94328.78
2022-09-28T21:36:34.373Z,94322.75
2022-09-28T21:39:00.924Z,94323.88
2022-09-28T21:41:28.775Z,94322.13
2022-09-28T21:43:55.546Z,94310.78
2022-09-28T21:46:22.319Z,94310.69
2022-09-28T21:48:54.787Z,94316.56
2022-09-28T21:51:21.829Z,94319.94
2022-09-28T21:53:49.247Z,94313.38
2022-09-28T21:56:15.835Z,94312.84
2022-09-28T21:58:42.402Z,94320.38
2022-09-28T22:01:19.352Z,94318.41
2022-09-28T22:03:48.573Z,94318.84
2022-09-28T22:06:18.349Z,94315.25
2022-09-28T22:08:46.308Z,94313.19
2022-09-28T22:11:16.725Z,94311.47
2022-09-28T22:13:53.939Z,94312.09
2022-09-28T22:16:23.179Z,94305.25
2022-09-28T22:18:50.128Z,94317.00
2022-09-28T22:21:21.098Z,94310.81
2022-09-28T22:23:47.840Z,94310.78
2022-09-28T22:26:20.657Z,94309.88
2022-09-28T22:28:49.710Z,94312.78
2022-09-28T22:31:17.601Z,94307.47
2022-09-28T22:33:44.250Z,94306.75
2022-09-28T22:36:11.423Z,94316.28
2022-09-28T22:38:38.159Z,94312.03
2022-09-28T22:41:04.785Z,94312.16
2022-09-28T22:43:32.913Z,94316.00
2022-09-28T22:46:05.218Z,94318.34
2022-09-28T22:48:32.685Z,94307.25
2022-09-28T22:50:59.741Z,94308.34
2022-09-28T22:53:26.687Z,94309.56
2022-09-28T22:55:53.344Z,94309.56
2022-09-28T22:58:20.224Z,94309.88
2022-09-28T23:00:46.911Z,94310.41
2022-09-28T23:03:13.654Z,94314.16
2022-09-28T23:05:40.780Z,94312.09
2022-09-28T23:08:07.414Z,94301.91
2022-09-28T23:10:34.069Z,94295.06
2022-09-28T23:13:00.752Z,94297.25
2022-09-28T23:15:28.902Z,94293.63
2022-09-28T23:17:55.591Z,94294.69
2022-09-28T23:20:22.226Z,94305.06
2022-09-28T23:22:49.444Z,94303.78
2022-09-28T23:25:17.660Z,94293.25
2022-09-28T23:27:48.918Z,94305.84
2022-09-28T23:30:18.004Z,94304.25
2022-09-28T23:32:44.864Z,94304.84
2022-09-28T23:35:11.778Z,94298.47
2022-09-28T23:37:38.644Z,94303.78
2022-09-28T23:40:06.813Z,94295.91
2022-09-28T23:42:34.799Z,94288.03
2022-09-28T23:45:01.401Z,94296.81
2022-09-28T23:47:27.975Z,94295.06
2022-09-28T23:49:54.560Z,94292.97
2022-09-28T23:52:21.127Z,94299.50
2022-09-28T23:54:47.754Z,94298.56
2022-09-28T23:57:14.329Z,94303.94
2022-09-28T23:59:40.915Z,94290.25
